createdAt,value
2017-10-11T00:00:40.421Z,0
2017-10-11T00:01:20.886Z,0
2017-10-11T00:02:01.350Z,0
2017-10-11T00:02:41.806Z,0
2017-10-11T00:03:22.261Z,0
2017-10-11T00:04:02.724Z,0
2017-10-11T00:04:43.178Z,0
2017-10-11T00:05:23.630Z,0
2017-10-11T00:06:04.094Z,0
2017-10-11T00:06:44.532Z,0
2017-10-11T00:07:24.993Z,0
2017-10-11T00:08:05.460Z,0
2017-10-11T00:08:45.903Z,0
2017-10-11T00:09:26.362Z,0
2017-10-11T00:10:06.817Z,0
2017-10-11T00:10:47.272Z,0
2017-10-11T00:11:27.728Z,0
2017-10-11T00:12:08.182Z,0
2017-10-11T00:12:48.634Z,0
2017-10-11T00:13:29.092Z,0
2017-10-11T00:14:09.576Z,0
2017-10-11T00:14:50.023Z,0
2017-10-11T00:15:30.476Z,0
2017-10-11T00:16:10.925Z,0
2017-10-11T00:16:51.386Z,0
2017-10-11T00:17:31.829Z,0
2017-10-11T00:18:12.289Z,0
2017-10-11T00:18:52.746Z,0
2017-10-11T00:19:33.205Z,0
2017-10-11T00:20:13.662Z,0
2017-10-11T00:20:54.107Z,0
2017-10-11T00:21:34.554Z,0
2017-10-11T00:22:15.013Z,0
2017-10-11T00:22:55.461Z,0
2017-10-11T00:23:35.919Z,0
2017-10-11T00:24:16.373Z,0
2017-10-11T00:24:56.837Z,0
2017-10-11T00:25:37.305Z,0
2017-10-11T00:26:17.764Z,0
2017-10-11T00:26:58.204Z,0
2017-10-11T00:27:38.651Z,0
2017-10-11T00:28:19.104Z,0
2017-10-11T00:28:59.564Z,0
2017-10-11T00:29:40.012Z,0
2017-10-11T00:30:20.477Z,0
2017-10-11T00:31:00.937Z,0
2017-10-11T00:31:41.387Z,0
2017-10-11T00:32:21.852Z,0
2017-10-11T00:33:02.311Z,0
2017-10-11T00:33:42.764Z,0
2017-10-11T00:34:23.214Z,0
2017-10-11T00:35:03.667Z,0
2017-10-11T00:35:44.123Z,0
2017-10-11T00:36:24.580Z,0
2017-10-11T00:37:05.042Z,0
2017-10-11T00:37:45.506Z,0
2017-10-11T00:38:25.981Z,0
2017-10-11T00:39:06.434Z,0
2017-10-11T00:39:46.893Z,0
2017-10-11T00:40:27.355Z,0
2017-10-11T00:41:07.807Z,0
2017-10-11T00:41:48.271Z,0
2017-10-11T00:42:28.737Z,0
2017-10-11T00:43:09.195Z,0
2017-10-11T00:43:49.666Z,0
2017-10-11T00:44:30.126Z,0
2017-10-11T00:45:10.583Z,0
2017-10-11T00:45:51.041Z,0
2017-10-11T00:46:31.495Z,0
2017-10-11T00:47:11.941Z,0
2017-10-11T00:47:52.405Z,0
2017-10-11T00:48:32.856Z,0
2017-10-11T00:49:13.315Z,0
2017-10-11T00:49:53.772Z,0
2017-10-11T00:50:34.227Z,0
2017-10-11T00:51:14.700Z,0
2017-10-11T00:51:55.140Z,0
2017-10-11T00:52:35.587Z,0
2017-10-11T00:53:16.045Z,0
2017-10-11T00:53:56.494Z,0
2017-10-11T00:54:36.945Z,0
2017-10-11T00:55:17.398Z,0
2017-10-11T00:55:57.853Z,0
2017-10-11T00:56:38.320Z,0
2017-10-11T00:57:18.780Z,0
2017-10-11T00:57:59.238Z,0
2017-10-11T00:58:39.699Z,0
2017-10-11T00:59:20.151Z,0
2017-10-11T01:00:00.613Z,0
2017-10-11T01:00:41.065Z,0
2017-10-11T01:01:21.513Z,0
2017-10-11T01:02:01.960Z,0
2017-10-11T01:02:42.417Z,0
2017-10-11T01:03:22.871Z,0
2017-10-11T01:04:03.319Z,0
2017-10-11T01:04:43.784Z,0
2017-10-11T01:05:24.239Z,0
2017-10-11T01:06:04.687Z,0
2017-10-11T01:06:45.152Z,0
2017-10-11T01:07:25.588Z,0
2017-10-11T01:08:06.039Z,0
2017-10-11T01:08:46.493Z,0
2017-10-11T01:09:26.958Z,0
2017-10-11T01:10:07.418Z,0
2017-10-11T01:10:47.880Z,0
2017-10-11T01:11:28.334Z,0
2017-10-11T01:12:08.792Z,0
2017-10-11T01:12:49.251Z,0
2017-10-11T01:13:29.691Z,0
2017-10-11T01:14:10.150Z,0
2017-10-11T01:14:50.589Z,0
2017-10-11T01:15:31.031Z,0
2017-10-11T01:16:11.490Z,0
2017-10-11T01:16:51.940Z,0
2017-10-11T01:17:32.409Z,0
2017-10-11T01:18:12.866Z,0
2017-10-11T01:18:53.321Z,0
2017-10-11T01:19:33.788Z,0
2017-10-11T01:20:14.249Z,0
2017-10-11T01:20:54.710Z,0
2017-10-11T01:21:35.172Z,0
2017-10-11T01:22:15.628Z,0
2017-10-11T01:22:56.075Z,0
2017-10-11T01:23:36.530Z,0
2017-10-11T01:24:16.982Z,0
2017-10-11T01:24:57.432Z,0
2017-10-11T01:25:37.886Z,0
2017-10-11T01:26:18.345Z,0
2017-10-11T01:26:58.798Z,0
2017-10-11T01:27:39.241Z,0
2017-10-11T01:28:19.707Z,0
2017-10-11T01:29:00.167Z,0
2017-10-11T01:29:40.617Z,0
2017-10-11T01:30:21.076Z,0
2017-10-11T01:31:01.561Z,0
2017-10-11T01:31:42.014Z,0
2017-10-11T01:32:22.468Z,0
2017-10-11T01:33:02.923Z,0
2017-10-11T01:33:43.376Z,0
2017-10-11T01:34:23.825Z,0
2017-10-11T01:35:04.285Z,0
2017-10-11T01:35:44.741Z,0
2017-10-11T01:36:25.194Z,0
2017-10-11T01:37:05.654Z,0
2017-10-11T01:37:46.113Z,0
2017-10-11T01:38:26.578Z,0
2017-10-11T01:39:07.034Z,0
2017-10-11T01:39:47.488Z,0
2017-10-11T01:40:27.941Z,0
2017-10-11T01:41:08.402Z,0
2017-10-11T01:41:48.853Z,0
2017-10-11T01:42:29.302Z,0
2017-10-11T01:43:09.763Z,0
2017-10-11T01:43:50.216Z,0
2017-10-11T01:44:30.678Z,0
2017-10-11T01:45:11.129Z,0
2017-10-11T01:45:51.579Z,0
2017-10-11T01:46:32.039Z,0
2017-10-11T01:47:12.495Z,0
2017-10-11T01:47:52.957Z,0
2017-10-11T01:48:33.396Z,0
2017-10-11T01:49:13.849Z,0
2017-10-11T01:49:54.308Z,0
2017-10-11T01:50:34.766Z,0
2017-10-11T01:51:15.221Z,0
2017-10-11T01:51:55.677Z,0
2017-10-11T01:52:36.130Z,0
2017-10-11T01:53:16.583Z,0
2017-10-11T01:53:57.031Z,0
2017-10-11T01:54:37.488Z,0
2017-10-11T01:55:17.934Z,0
2017-10-11T01:55:58.382Z,0
2017-10-11T01:56:38.836Z,0
2017-10-11T01:57:19.304Z,0
2017-10-11T01:57:59.764Z,0
2017-10-11T01:58:40.200Z,0
2017-10-11T01:59:20.767Z,0
2017-10-11T02:00:01.163Z,0
2017-10-11T02:00:41.614Z,0
2017-10-11T02:01:22.065Z,0
2017-10-11T02:02:02.526Z,0
2017-10-11T02:02:42.981Z,0
2017-10-11T02:03:23.434Z,0
2017-10-11T02:04:03.900Z,0
2017-10-11T02:04:44.356Z,0
2017-10-11T02:05:24.815Z,0
2017-10-11T02:06:05.265Z,0
2017-10-11T02:06:45.737Z,0
2017-10-11T02:07:26.194Z,0
2017-10-11T02:08:06.651Z,0
2017-10-11T02:08:47.109Z,0
2017-10-11T02:09:27.556Z,0
2017-10-11T02:10:08.008Z,0
2017-10-11T02:10:48.467Z,0
2017-10-11T02:11:28.922Z,0
2017-10-11T02:12:09.375Z,0
2017-10-11T02:12:49.832Z,0
2017-10-11T02:13:30.284Z,0
2017-10-11T02:14:10.735Z,0
2017-10-11T02:14:51.184Z,0
2017-10-11T02:15:31.640Z,0
2017-10-11T02:16:12.093Z,0
2017-10-11T02:16:52.545Z,0
2017-10-11T02:17:32.999Z,0
2017-10-11T02:18:13.598Z,0
2017-10-11T02:18:54.061Z,0
2017-10-11T02:19:34.517Z,0
2017-10-11T02:20:14.976Z,0
2017-10-11T02:20:55.416Z,0
2017-10-11T02:21:35.874Z,0
2017-10-11T02:22:16.325Z,0
2017-10-11T02:22:56.787Z,0
2017-10-11T02:23:37.241Z,0
2017-10-11T02:24:17.689Z,0
2017-10-11T02:24:58.142Z,0
2017-10-11T02:25:38.606Z,0
2017-10-11T02:26:19.062Z,0
2017-10-11T02:26:59.509Z,0
2017-10-11T02:27:39.962Z,0
2017-10-11T02:28:20.419Z,0
2017-10-11T02:29:00.877Z,0
2017-10-11T02:29:41.335Z,0
2017-10-11T02:30:21.794Z,0
2017-10-11T02:31:02.240Z,0
2017-10-11T02:31:42.703Z,0
2017-10-11T02:32:23.164Z,0
2017-10-11T02:33:03.611Z,0
2017-10-11T02:33:44.059Z,0
2017-10-11T02:34:24.513Z,0
2017-10-11T02:35:04.974Z,0
2017-10-11T02:35:45.426Z,0
2017-10-11T02:36:25.886Z,0
2017-10-11T02:37:06.338Z,0
2017-10-11T02:37:46.798Z,0
2017-10-11T02:38:27.249Z,0
2017-10-11T02:39:07.706Z,0
2017-10-11T02:39:48.174Z,0
2017-10-11T02:40:28.622Z,0
2017-10-11T02:41:09.082Z,0
2017-10-11T02:41:49.554Z,0
2017-10-11T02:42:30.014Z,0
2017-10-11T02:43:10.467Z,0
2017-10-11T02:43:50.930Z,0
2017-10-11T02:44:31.391Z,0
2017-10-11T02:45:11.841Z,0
2017-10-11T02:45:52.287Z,0
2017-10-11T02:46:32.745Z,0
2017-10-11T02:47:13.203Z,0
2017-10-11T02:47:53.673Z,0
2017-10-11T02:48:34.124Z,0
2017-10-11T02:49:14.582Z,0
2017-10-11T02:49:55.062Z,0
2017-10-11T02:50:35.511Z,0
2017-10-11T02:51:15.967Z,0
2017-10-11T02:51:56.417Z,0
2017-10-11T02:52:36.872Z,0
2017-10-11T02:53:17.320Z,0
2017-10-11T02:53:57.774Z,0
2017-10-11T02:54:38.237Z,0
2017-10-11T02:55:18.692Z,0
2017-10-11T02:55:59.150Z,0
2017-10-11T02:56:39.600Z,0
2017-10-11T02:57:20.066Z,0
2017-10-11T02:58:00.514Z,0
2017-10-11T02:58:40.975Z,0
2017-10-11T02:59:21.427Z,0
2017-10-11T03:00:01.900Z,0
2017-10-11T03:00:42.357Z,0
2017-10-11T03:01:22.798Z,0
2017-10-11T03:02:03.269Z,0
2017-10-11T03:02:43.707Z,0
2017-10-11T03:03:24.169Z,0
2017-10-11T03:04:04.626Z,0
2017-10-11T03:04:45.067Z,0
2017-10-11T03:05:25.532Z,0
2017-10-11T03:06:05.988Z,0
2017-10-11T03:06:46.448Z,0
2017-10-11T03:07:26.900Z,0
2017-10-11T03:08:07.366Z,0
2017-10-11T03:08:47.815Z,0
2017-10-11T03:09:28.271Z,0
2017-10-11T03:10:08.726Z,0
2017-10-11T03:10:49.173Z,0
2017-10-11T03:11:29.622Z,0
2017-10-11T03:12:10.077Z,0
2017-10-11T03:12:50.543Z,0
2017-10-11T03:13:30.976Z,0
2017-10-11T03:14:11.439Z,0
2017-10-11T03:14:51.886Z,0
2017-10-11T03:15:32.343Z,0
2017-10-11T03:16:12.787Z,0
2017-10-11T03:16:53.244Z,0
2017-10-11T03:17:33.700Z,0
2017-10-11T03:18:14.158Z,0
2017-10-11T03:18:54.611Z,0
2017-10-11T03:19:35.070Z,0
2017-10-11T03:20:15.519Z,0
2017-10-11T03:20:55.972Z,0
2017-10-11T03:21:36.431Z,0
2017-10-11T03:22:16.888Z,0
2017-10-11T03:22:57.342Z,0
2017-10-11T03:23:37.796Z,0
2017-10-11T03:24:18.250Z,0
2017-10-11T03:24:58.696Z,0
2017-10-11T03:25:39.158Z,0
2017-10-11T03:26:19.620Z,0
2017-10-11T03:27:00.070Z,0
2017-10-11T03:27:40.532Z,0
2017-10-11T03:28:20.991Z,0
2017-10-11T03:29:01.443Z,0
2017-10-11T03:29:41.909Z,0
2017-10-11T03:30:22.363Z,0
2017-10-11T03:31:02.817Z,0
2017-10-11T03:31:43.273Z,0
2017-10-11T03:32:23.728Z,0
2017-10-11T03:33:04.186Z,0
2017-10-11T03:33:44.643Z,0
2017-10-11T03:34:25.089Z,0
2017-10-11T03:35:05.586Z,0
2017-10-11T03:35:45.998Z,0
2017-10-11T03:36:26.454Z,0
2017-10-11T03:37:06.903Z,0
2017-10-11T03:37:47.368Z,0
2017-10-11T03:38:27.828Z,0
2017-10-11T03:39:08.275Z,0
2017-10-11T03:39:48.739Z,0
2017-10-11T03:40:29.188Z,0
2017-10-11T03:41:09.637Z,0
2017-10-11T03:41:50.123Z,0
2017-10-11T03:42:30.570Z,0
2017-10-11T03:43:11.016Z,0
2017-10-11T03:43:51.468Z,0
2017-10-11T03:44:31.922Z,0
2017-10-11T03:45:12.382Z,0
2017-10-11T03:45:52.828Z,0
2017-10-11T03:46:33.280Z,0
2017-10-11T03:47:13.725Z,0
2017-10-11T03:47:54.176Z,0
2017-10-11T03:48:34.638Z,0
2017-10-11T03:49:15.087Z,0
2017-10-11T03:49:55.547Z,0
2017-10-11T03:50:35.988Z,0
2017-10-11T03:51:16.439Z,0
2017-10-11T03:51:56.894Z,0
2017-10-11T03:52:37.344Z,0
2017-10-11T03:53:17.794Z,0
2017-10-11T03:53:58.254Z,0
2017-10-11T03:54:38.698Z,0
2017-10-11T03:55:19.152Z,0
2017-10-11T03:55:59.609Z,0
2017-10-11T03:56:40.066Z,0
2017-10-11T03:57:20.517Z,0
2017-10-11T03:58:00.970Z,0
2017-10-11T03:58:41.426Z,0
2017-10-11T03:59:21.891Z,0
2017-10-11T04:00:02.369Z,0
2017-10-11T04:00:42.821Z,0
2017-10-11T04:01:23.292Z,0
2017-10-11T04:02:03.738Z,0
2017-10-11T04:02:44.194Z,0
2017-10-11T04:03:24.644Z,0
2017-10-11T04:04:05.091Z,0
2017-10-11T04:04:45.552Z,0
2017-10-11T04:05:26.003Z,0
2017-10-11T04:06:06.457Z,0
2017-10-11T04:06:46.919Z,0
2017-10-11T04:07:27.366Z,0
2017-10-11T04:08:07.821Z,0
2017-10-11T04:08:48.284Z,0
2017-10-11T04:09:28.762Z,0
2017-10-11T04:10:09.218Z,0
2017-10-11T04:10:49.683Z,0
2017-10-11T04:11:30.132Z,0
2017-10-11T04:12:10.589Z,0
2017-10-11T04:12:51.066Z,0
2017-10-11T04:13:31.526Z,0
2017-10-11T04:14:11.989Z,0
2017-10-11T04:14:52.451Z,0
2017-10-11T04:15:32.911Z,0
2017-10-11T04:16:13.367Z,0
2017-10-11T04:16:53.821Z,0
2017-10-11T04:17:34.275Z,0
2017-10-11T04:18:14.741Z,0
2017-10-11T04:18:55.190Z,0
2017-10-11T04:19:35.647Z,0
2017-10-11T04:20:16.101Z,0
2017-10-11T04:20:56.558Z,0
2017-10-11T04:21:37.016Z,0
2017-10-11T04:22:17.470Z,0
2017-10-11T04:22:57.944Z,0
2017-10-11T04:23:38.401Z,0
2017-10-11T04:24:18.857Z,0
2017-10-11T04:24:59.329Z,0
2017-10-11T04:25:39.791Z,0
2017-10-11T04:26:20.251Z,0
2017-10-11T04:27:00.707Z,0
2017-10-11T04:27:41.167Z,0
2017-10-11T04:28:21.629Z,0
2017-10-11T04:29:02.086Z,0
2017-10-11T04:29:42.543Z,0
2017-10-11T04:30:22.997Z,0
2017-10-11T04:31:03.460Z,0
2017-10-11T04:31:43.917Z,0
2017-10-11T04:32:24.365Z,0
2017-10-11T04:33:04.820Z,0
2017-10-11T04:33:45.273Z,0
2017-10-11T04:34:25.724Z,0
2017-10-11T04:35:06.173Z,0
2017-10-11T04:35:46.629Z,0
2017-10-11T04:36:27.087Z,0
2017-10-11T04:37:07.550Z,0
2017-10-11T04:37:48.008Z,0
2017-10-11T04:38:28.467Z,0
2017-10-11T04:39:08.923Z,0
2017-10-11T04:39:49.379Z,0
2017-10-11T04:40:29.832Z,0
2017-10-11T04:42:57.674Z,0
2017-10-11T04:43:38.131Z,0
2017-10-11T04:44:18.576Z,0
2017-10-11T04:44:59.033Z,0
2017-10-11T04:45:39.482Z,0
2017-10-11T04:46:19.934Z,0
2017-10-11T04:47:00.386Z,0
2017-10-11T04:47:40.835Z,0
2017-10-11T04:48:21.269Z,0
2017-10-11T04:49:01.715Z,0
2017-10-11T04:49:42.165Z,0
2017-10-11T04:50:22.618Z,0
2017-10-11T04:51:03.060Z,0
2017-10-11T04:51:43.505Z,0
2017-10-11T04:52:23.955Z,0
2017-10-11T04:53:04.405Z,0
2017-10-11T04:53:44.853Z,0
2017-10-11T04:54:25.314Z,0
2017-10-11T04:55:05.761Z,0
2017-10-11T04:55:46.220Z,0
2017-10-11T04:56:26.676Z,0
2017-10-11T04:57:07.129Z,0
2017-10-11T04:57:47.585Z,0
2017-10-11T04:58:28.028Z,0
2017-10-11T04:59:08.478Z,0
2017-10-11T04:59:48.931Z,0
2017-10-11T05:00:29.371Z,0
2017-10-11T05:01:09.833Z,0
2017-10-11T05:01:50.300Z,0
2017-10-11T05:02:30.745Z,0
2017-10-11T05:03:11.200Z,0
2017-10-11T05:03:51.647Z,0
2017-10-11T05:04:32.099Z,0
2017-10-11T05:05:12.567Z,0
2017-10-11T05:05:53.055Z,0
2017-10-11T05:06:33.484Z,0
2017-10-11T05:07:13.932Z,0
2017-10-11T05:07:54.388Z,0
2017-10-11T05:08:34.837Z,0
2017-10-11T05:09:15.301Z,0
2017-10-11T05:09:55.763Z,0
2017-10-11T05:10:36.207Z,0
2017-10-11T05:11:16.667Z,0
2017-10-11T05:11:57.133Z,0
2017-10-11T05:12:37.602Z,0
2017-10-11T05:13:18.054Z,0
2017-10-11T05:13:58.507Z,0
2017-10-11T05:14:38.959Z,0
2017-10-11T05:15:19.466Z,0
2017-10-11T05:15:59.920Z,0
2017-10-11T05:16:40.380Z,0
2017-10-11T05:17:20.841Z,0
2017-10-11T05:18:01.294Z,0
2017-10-11T05:18:41.751Z,0
2017-10-11T05:19:22.201Z,0
2017-10-11T05:20:02.657Z,0
2017-10-11T05:20:43.114Z,0
2017-10-11T05:21:23.570Z,0
2017-10-11T05:22:04.036Z,0
2017-10-11T05:22:44.487Z,0
2017-10-11T05:23:24.950Z,0
2017-10-11T05:24:05.398Z,0
2017-10-11T05:24:45.852Z,0
2017-10-11T05:25:26.305Z,0
2017-10-11T05:26:06.745Z,0
2017-10-11T05:26:47.191Z,0
2017-10-11T05:27:27.645Z,0
2017-10-11T05:28:08.096Z,0
2017-10-11T05:28:48.550Z,0
2017-10-11T05:29:29.009Z,0
2017-10-11T05:30:09.463Z,0
2017-10-11T05:30:49.925Z,0
2017-10-11T05:31:30.360Z,0
2017-10-11T05:32:10.814Z,0
2017-10-11T05:32:51.263Z,0
2017-10-11T05:33:31.715Z,0
2017-10-11T05:34:12.165Z,0
2017-10-11T05:34:52.615Z,0
2017-10-11T05:35:33.065Z,0
2017-10-11T05:36:13.519Z,0
2017-10-11T05:36:53.967Z,0
2017-10-11T05:37:34.448Z,0
2017-10-11T05:38:14.879Z,0
2017-10-11T05:38:55.344Z,0
2017-10-11T05:39:35.797Z,0
2017-10-11T05:40:16.260Z,0
2017-10-11T05:40:56.852Z,0
2017-10-11T05:41:37.299Z,0
2017-10-11T05:42:17.747Z,0
2017-10-11T05:42:58.199Z,0
2017-10-11T05:43:38.654Z,0
2017-10-11T05:44:19.102Z,0
2017-10-11T05:44:59.554Z,0
2017-10-11T05:45:40.025Z,0
2017-10-11T05:46:20.474Z,0
2017-10-11T05:47:01.003Z,0
2017-10-11T05:47:41.437Z,0
2017-10-11T05:48:21.907Z,0
2017-10-11T05:49:02.366Z,0
2017-10-11T05:49:42.825Z,0
2017-10-11T05:50:23.269Z,0
2017-10-11T05:51:03.725Z,0
2017-10-11T05:51:44.176Z,0
2017-10-11T05:52:24.637Z,0
2017-10-11T05:53:05.106Z,0
2017-10-11T05:53:45.559Z,0
2017-10-11T05:54:26.018Z,0
2017-10-11T05:55:06.473Z,0
2017-10-11T05:55:46.927Z,0
2017-10-11T05:56:27.377Z,0
2017-10-11T05:57:07.843Z,0
2017-10-11T05:57:48.298Z,0
2017-10-11T05:58:28.754Z,0
2017-10-11T05:59:09.199Z,0
2017-10-11T05:59:49.652Z,0
2017-10-11T06:00:30.111Z,0
2017-10-11T06:01:10.566Z,0
2017-10-11T06:01:51.017Z,0
2017-10-11T06:02:31.467Z,0
2017-10-11T06:03:11.920Z,0
2017-10-11T06:03:52.369Z,0
2017-10-11T06:04:32.826Z,0
2017-10-11T06:05:13.301Z,0
2017-10-11T06:05:53.732Z,0
2017-10-11T06:06:34.186Z,0
2017-10-11T06:07:14.638Z,0
2017-10-11T06:07:55.093Z,0
2017-10-11T06:08:35.549Z,0
2017-10-11T06:09:16.007Z,0
2017-10-11T06:09:56.457Z,0
2017-10-11T06:10:36.903Z,0
2017-10-11T06:11:17.361Z,0
2017-10-11T06:11:57.820Z,0
2017-10-11T06:12:38.273Z,0
2017-10-11T06:13:18.728Z,0
2017-10-11T06:13:59.181Z,0
2017-10-11T06:14:39.638Z,0
2017-10-11T06:15:20.091Z,0
2017-10-11T06:16:00.548Z,0
2017-10-11T06:16:41.008Z,0
2017-10-11T06:17:21.468Z,0
2017-10-11T06:18:01.934Z,0
2017-10-11T06:18:42.371Z,0
2017-10-11T06:19:22.824Z,0
2017-10-11T06:20:03.281Z,0
2017-10-11T06:20:43.738Z,0
2017-10-11T06:21:24.194Z,0
2017-10-11T06:22:04.650Z,0
2017-10-11T06:22:45.098Z,0
2017-10-11T06:23:25.556Z,0
2017-10-11T06:24:06.015Z,0
2017-10-11T06:24:46.468Z,0
2017-10-11T06:25:26.922Z,0
2017-10-11T06:26:07.375Z,0
2017-10-11T06:26:47.820Z,0
2017-10-11T06:27:28.269Z,0
2017-10-11T06:28:08.725Z,0
2017-10-11T06:28:49.178Z,0
2017-10-11T06:29:29.634Z,0
2017-10-11T06:30:10.077Z,0
2017-10-11T06:30:50.529Z,0
2017-10-11T06:31:30.988Z,0
2017-10-11T06:32:11.441Z,0
2017-10-11T06:32:51.901Z,0
2017-10-11T06:33:32.340Z,0
2017-10-11T06:34:12.799Z,0
2017-10-11T06:34:53.249Z,0
2017-10-11T06:35:33.706Z,0
2017-10-11T06:36:14.153Z,0
2017-10-11T06:36:54.597Z,0
2017-10-11T06:37:35.062Z,0
2017-10-11T06:38:15.501Z,0
2017-10-11T06:38:55.946Z,0
2017-10-11T06:39:36.404Z,0
2017-10-11T06:40:16.859Z,0
2017-10-11T06:40:57.313Z,0
2017-10-11T06:41:37.779Z,0
2017-10-11T06:42:18.214Z,0
2017-10-11T06:42:58.678Z,0
2017-10-11T06:43:39.152Z,0
2017-10-11T06:44:19.603Z,0
2017-10-11T06:45:00.047Z,0
2017-10-11T06:45:40.483Z,0
2017-10-11T06:46:20.918Z,0
2017-10-11T06:47:01.372Z,0
2017-10-11T06:47:41.842Z,0
2017-10-11T06:48:22.291Z,0
2017-10-11T06:49:02.826Z,0
2017-10-11T06:49:43.338Z,0
2017-10-11T06:50:23.865Z,0
2017-10-11T06:51:04.253Z,0
2017-10-11T06:51:44.702Z,0
2017-10-11T06:52:25.155Z,0
2017-10-11T06:53:05.634Z,0
2017-10-11T06:53:46.074Z,25
2017-10-11T06:54:26.519Z,25
2017-10-11T06:55:06.961Z,25
2017-10-11T06:55:47.408Z,25
2017-10-11T06:56:27.856Z,30
2017-10-11T06:57:08.314Z,30
2017-10-11T06:57:48.786Z,30
2017-10-11T06:58:29.275Z,30
2017-10-11T06:59:09.788Z,20
2017-10-11T06:59:50.245Z,20
2017-10-11T07:00:30.693Z,20
2017-10-11T07:01:11.130Z,20
2017-10-11T07:01:51.606Z,20
2017-10-11T07:02:32.068Z,20
2017-10-11T07:03:12.526Z,20
2017-10-11T07:03:52.982Z,25
2017-10-11T07:04:33.417Z,45
2017-10-11T07:05:13.865Z,30
2017-10-11T07:05:54.323Z,35
2017-10-11T07:06:34.837Z,40
2017-10-11T07:07:15.417Z,70
2017-10-11T07:07:55.847Z,65
2017-10-11T07:08:36.294Z,85
2017-10-11T07:09:16.785Z,80
2017-10-11T07:09:57.170Z,80
2017-10-11T07:10:37.583Z,75
2017-10-11T07:11:18.027Z,55
2017-10-11T07:11:58.429Z,80
2017-10-11T07:12:38.843Z,90
2017-10-11T07:13:19.336Z,85
2017-10-11T07:13:59.738Z,90
2017-10-11T07:14:40.149Z,100
2017-10-11T07:15:20.590Z,100
2017-10-11T07:16:01.019Z,105
2017-10-11T07:16:41.438Z,110
2017-10-11T07:17:21.881Z,110
2017-10-11T07:18:02.335Z,105
2017-10-11T07:18:42.783Z,105
2017-10-11T07:19:23.236Z,105
2017-10-11T07:20:03.687Z,105
2017-10-11T07:20:44.138Z,110
2017-10-11T07:21:24.590Z,120
2017-10-11T07:22:05.050Z,125
2017-10-11T07:22:45.500Z,130
2017-10-11T07:23:25.953Z,135
2017-10-11T07:24:06.411Z,135
2017-10-11T07:24:46.864Z,140
2017-10-11T07:25:27.305Z,135
2017-10-11T07:26:07.754Z,120
2017-10-11T07:26:48.198Z,90
2017-10-11T07:27:28.644Z,115
2017-10-11T07:28:09.084Z,95
2017-10-11T07:28:49.534Z,80
2017-10-11T07:29:29.988Z,75
2017-10-11T07:30:10.466Z,60
2017-10-11T07:30:50.933Z,110
2017-10-11T07:31:31.422Z,135
2017-10-11T07:32:11.857Z,135
2017-10-11T07:32:52.352Z,100
2017-10-11T07:33:32.770Z,100
2017-10-11T07:34:13.224Z,100
2017-10-11T07:34:53.681Z,120
2017-10-11T07:35:34.159Z,125
2017-10-11T07:36:14.596Z,135
2017-10-11T07:36:55.053Z,140
2017-10-11T07:37:35.504Z,85
2017-10-11T07:38:15.964Z,160
2017-10-11T07:38:56.417Z,140
2017-10-11T07:39:36.878Z,145
2017-10-11T07:40:17.334Z,135
2017-10-11T07:40:57.769Z,125
2017-10-11T07:41:38.234Z,155
2017-10-11T07:42:18.689Z,165
2017-10-11T07:42:59.146Z,170
2017-10-11T07:43:39.607Z,175
2017-10-11T07:44:20.066Z,170
2017-10-11T07:45:00.512Z,170
2017-10-11T07:45:40.964Z,165
2017-10-11T07:46:21.426Z,120
2017-10-11T07:47:01.874Z,125
2017-10-11T07:47:42.334Z,120
2017-10-11T07:48:22.790Z,105
2017-10-11T07:49:03.237Z,90
2017-10-11T07:49:43.698Z,90
2017-10-11T07:50:24.169Z,105
2017-10-11T07:51:04.622Z,85
2017-10-11T07:51:45.078Z,105
2017-10-11T07:52:25.535Z,110
2017-10-11T07:53:05.997Z,110
2017-10-11T07:53:46.438Z,135
2017-10-11T07:54:26.888Z,175
2017-10-11T07:55:07.328Z,180
2017-10-11T07:55:47.774Z,175
2017-10-11T07:56:28.223Z,180
2017-10-11T07:57:08.683Z,165
2017-10-11T07:57:49.134Z,165
2017-10-11T07:58:29.589Z,150
2017-10-11T07:59:10.055Z,155
2017-10-11T07:59:50.511Z,155
2017-10-11T08:00:30.974Z,175
2017-10-11T08:01:11.416Z,180
2017-10-11T08:01:51.873Z,170
2017-10-11T08:02:32.326Z,190
2017-10-11T08:03:12.781Z,200
2017-10-11T08:03:53.238Z,195
2017-10-11T08:04:33.689Z,190
2017-10-11T08:05:14.155Z,130
2017-10-11T08:05:54.598Z,110
2017-10-11T08:06:35.048Z,165
2017-10-11T08:07:15.492Z,175
2017-10-11T08:07:55.945Z,150
2017-10-11T08:08:36.401Z,155
2017-10-11T08:09:16.854Z,130
2017-10-11T08:09:57.304Z,105
2017-10-11T08:10:37.747Z,125
2017-10-11T08:11:18.193Z,125
2017-10-11T08:11:58.641Z,95
2017-10-11T08:12:39.107Z,145
2017-10-11T08:13:19.555Z,90
2017-10-11T08:14:00.017Z,90
2017-10-11T08:14:40.475Z,115
2017-10-11T08:15:20.937Z,85
2017-10-11T08:16:01.392Z,175
2017-10-11T08:16:41.843Z,190
2017-10-11T08:17:22.298Z,195
2017-10-11T08:18:02.752Z,65
2017-10-11T08:18:43.204Z,65
2017-10-11T08:19:23.702Z,60
2017-10-11T08:20:04.140Z,50
2017-10-11T08:20:44.587Z,65
2017-10-11T08:21:25.039Z,70
2017-10-11T08:22:05.516Z,80
2017-10-11T08:22:45.966Z,80
2017-10-11T08:23:26.428Z,50
2017-10-11T08:24:06.882Z,60
2017-10-11T08:24:47.330Z,65
2017-10-11T08:25:27.776Z,60
2017-10-11T08:26:08.230Z,40
2017-10-11T08:26:48.691Z,150
2017-10-11T08:27:29.143Z,80
2017-10-11T08:28:09.605Z,55
2017-10-11T08:28:50.080Z,40
2017-10-11T08:29:30.534Z,110
2017-10-11T08:30:10.991Z,35
2017-10-11T08:30:51.442Z,65
2017-10-11T08:31:31.906Z,25
2017-10-11T08:32:12.356Z,20
2017-10-11T08:32:52.812Z,20
2017-10-11T08:33:33.259Z,25
2017-10-11T08:34:13.710Z,30
2017-10-11T08:34:54.168Z,20
2017-10-11T08:35:34.645Z,25
2017-10-11T08:36:15.100Z,25
2017-10-11T08:36:55.558Z,20
2017-10-11T08:37:36.018Z,20
2017-10-11T08:38:16.470Z,15
2017-10-11T08:38:56.925Z,15
2017-10-11T08:39:37.373Z,15
2017-10-11T08:40:17.825Z,20
2017-10-11T08:40:58.288Z,20
2017-10-11T08:41:38.741Z,20
2017-10-11T08:42:19.190Z,20
2017-10-11T08:42:59.867Z,15
2017-10-11T08:43:40.317Z,15
2017-10-11T08:44:20.776Z,15
2017-10-11T08:45:01.321Z,10
2017-10-11T08:45:41.876Z,10
2017-10-11T08:46:22.328Z,10
2017-10-11T08:47:02.774Z,10
2017-10-11T08:47:43.239Z,10
2017-10-11T08:48:24.551Z,10
2017-10-11T08:50:39.996Z,15
2017-10-11T08:51:20.451Z,15
2017-10-11T08:52:00.902Z,10
2017-10-11T08:52:41.359Z,10
2017-10-11T08:53:21.810Z,15
2017-10-11T08:54:02.265Z,15
2017-10-11T08:54:42.726Z,15
2017-10-11T08:55:23.183Z,15
2017-10-11T08:56:03.634Z,10
2017-10-11T08:56:44.086Z,10
2017-10-11T08:57:24.546Z,10
2017-10-11T08:58:04.995Z,10
2017-10-11T08:58:45.447Z,10
2017-10-11T08:59:25.889Z,15
2017-10-11T09:00:06.396Z,15
2017-10-11T09:00:46.841Z,15
2017-10-11T09:01:27.299Z,15
2017-10-11T09:02:07.755Z,15
2017-10-11T09:02:48.208Z,15
2017-10-11T09:03:28.662Z,15
2017-10-11T09:04:09.118Z,10
2017-10-11T09:04:49.568Z,10
2017-10-11T09:05:30.034Z,15
2017-10-11T09:06:10.493Z,15
2017-10-11T09:06:50.986Z,15
2017-10-11T09:07:31.461Z,15
2017-10-11T09:08:11.895Z,15
2017-10-11T09:08:52.347Z,15
2017-10-11T09:09:32.806Z,15
2017-10-11T09:10:13.254Z,15
2017-10-11T09:10:53.708Z,15
2017-10-11T09:11:34.147Z,15
2017-10-11T09:12:14.601Z,15
2017-10-11T09:12:55.060Z,15
2017-10-11T09:13:35.526Z,10
2017-10-11T09:14:15.981Z,10
2017-10-11T09:14:56.441Z,10
2017-10-11T09:15:36.897Z,10
2017-10-11T09:16:17.351Z,10
2017-10-11T09:16:57.806Z,15
2017-10-11T09:17:38.276Z,15
2017-10-11T09:18:18.738Z,15
2017-10-11T09:18:59.196Z,15
2017-10-11T09:19:39.651Z,15
2017-10-11T09:20:20.104Z,10
2017-10-11T09:21:00.561Z,10
2017-10-11T09:21:41.015Z,10
2017-10-11T09:22:21.468Z,10
2017-10-11T09:23:01.930Z,10
2017-10-11T09:23:42.379Z,10
2017-10-11T09:24:22.831Z,10
2017-10-11T09:25:03.278Z,10
2017-10-11T09:25:43.737Z,10
2017-10-11T09:26:24.188Z,10
2017-10-11T09:27:04.635Z,10
2017-10-11T09:27:45.089Z,10
2017-10-11T09:28:25.543Z,10
2017-10-11T09:29:05.994Z,10
2017-10-11T09:29:46.449Z,5
2017-10-11T09:30:26.906Z,5
2017-10-11T09:31:07.362Z,5
2017-10-11T09:31:47.811Z,5
2017-10-11T09:32:28.265Z,5
2017-10-11T09:33:08.714Z,5
2017-10-11T09:33:49.171Z,5
2017-10-11T09:34:29.696Z,5
2017-10-11T09:35:10.154Z,5
2017-10-11T09:35:50.607Z,5
2017-10-11T09:36:31.056Z,5
2017-10-11T09:37:11.509Z,5
2017-10-11T09:37:51.949Z,5
2017-10-11T09:38:32.409Z,5
2017-10-11T09:39:12.870Z,5
2017-10-11T09:39:53.336Z,5
2017-10-11T09:40:33.780Z,5
2017-10-11T09:41:14.242Z,5
2017-10-11T09:41:54.694Z,5
2017-10-11T09:42:35.235Z,5
2017-10-11T09:43:15.688Z,10
2017-10-11T09:43:56.138Z,10
2017-10-11T09:44:36.578Z,10
2017-10-11T09:45:17.050Z,10
2017-10-11T09:45:57.502Z,10
2017-10-11T09:46:37.994Z,10
2017-10-11T09:47:19.571Z,10
2017-10-11T09:47:59.371Z,10
2017-10-11T09:48:39.829Z,10
2017-10-11T09:49:20.286Z,10
2017-10-11T09:50:00.830Z,10
2017-10-11T09:50:41.285Z,10
2017-10-11T09:51:21.742Z,10
2017-10-11T09:52:02.195Z,15
2017-10-11T09:52:42.645Z,20
2017-10-11T09:53:23.105Z,20
2017-10-11T09:54:03.543Z,20